Terminal Aerodrome Forecast
Issued by NWS

Home | Current Version | Previous Version | Text Only | Print | Product List | Glossary On
Versions: 1 2 3 4 5 6 7 8 9 10 11 12
000
FTUS45 KABQ 300521
TAFFMN
TAF
KFMN 300521Z 3006/0106 VRB05KT P6SM BKN110
     FM300900 08009KT P6SM BKN150
     FM302200 27009KT P6SM SCT110
     FM010200 VRB06KT P6SM FEW110=

USA.gov is the U.S. government's official web portal to all federal, state and local government web resources and services.